createdAt,value
2019-04-11T00:01:47.783Z,7.90
2019-04-11T00:04:19.017Z,7.90
2019-04-11T00:06:49.890Z,8.00
2019-04-11T00:09:20.806Z,8.00
2019-04-11T00:11:50.959Z,8.00
2019-04-11T00:14:22.120Z,7.90
2019-04-11T00:16:53.364Z,7.80
2019-04-11T00:19:23.301Z,7.80
2019-04-11T00:21:55.327Z,7.80
2019-04-11T00:24:25.513Z,7.70
2019-04-11T00:26:55.492Z,7.80
2019-04-11T00:29:28.732Z,7.90
2019-04-11T00:31:58.749Z,7.60
2019-04-11T00:34:33.756Z,7.70
2019-04-11T00:37:05.143Z,7.70
2019-04-11T00:39:36.091Z,7.40
2019-04-11T00:42:06.203Z,7.30
2019-04-11T00:44:35.775Z,7.50
2019-04-11T00:47:05.285Z,7.60
2019-04-11T00:49:34.881Z,7.60
2019-04-11T00:52:04.613Z,7.70
2019-04-11T00:54:35.251Z,7.60
2019-04-11T00:57:06.542Z,7.70
2019-04-11T00:59:38.395Z,7.70
2019-04-11T01:02:09.374Z,7.70
2019-04-11T01:04:39.818Z,7.60
2019-04-11T01:07:10.970Z,7.60
2019-04-11T01:09:42.518Z,7.50
2019-04-11T01:12:12.821Z,7.40
2019-04-11T01:14:44.224Z,7.40
2019-04-11T01:20:56.706Z,7.50
2019-04-11T01:23:27.087Z,7.30
2019-04-11T01:25:56.978Z,7.40
2019-04-11T01:28:27.407Z,7.50
2019-04-11T01:31:05.153Z,7.50
2019-04-11T01:33:37.916Z,7.40
2019-04-11T01:36:08.908Z,7.20
2019-04-11T01:38:44.302Z,7.30
2019-04-11T01:41:14.358Z,7.20
2019-04-11T01:43:53.484Z,7.10
2019-04-11T01:46:16.073Z,7.10
2019-04-11T01:49:14.294Z,6.90
2019-04-11T01:51:56.081Z,7.00
2019-04-11T01:54:28.300Z,7.10
2019-04-11T01:57:01.373Z,7.10
2019-04-11T01:59:31.754Z,6.90
2019-04-11T02:02:09.556Z,6.90
2019-04-11T02:04:48.175Z,7.00
2019-04-11T02:07:18.586Z,6.90
2019-04-11T02:09:49.041Z,6.90
2019-04-11T02:12:20.839Z,6.90
2019-04-11T02:14:52.147Z,6.80
2019-04-11T02:17:22.538Z,6.70
2019-04-11T02:19:52.390Z,6.80
2019-04-11T02:22:47.221Z,6.70
2019-04-11T02:25:34.102Z,6.70
2019-04-11T02:28:07.150Z,6.80
2019-04-11T02:30:41.689Z,6.70
2019-04-11T02:33:13.741Z,6.50
2019-04-11T02:35:45.984Z,6.60
2019-04-11T02:44:52.311Z,6.50
2019-04-11T02:47:15.617Z,6.50
2019-04-11T02:49:41.205Z,6.50
2019-04-11T02:52:13.273Z,6.30
2019-04-11T02:54:43.175Z,6.30
2019-04-11T02:57:14.169Z,6.40
2019-04-11T02:59:45.209Z,6.40
2019-04-11T03:02:19.251Z,6.30
2019-04-11T03:04:52.878Z,6.10
2019-04-11T03:12:44.246Z,6.20
2019-04-11T03:15:31.748Z,6.00
2019-04-11T03:17:54.853Z,6.10
2019-04-11T03:20:29.019Z,6.00
2019-04-11T03:22:57.280Z,6.00
2019-04-11T03:25:30.449Z,6.00
2019-04-11T03:28:02.811Z,5.70
2019-04-11T03:30:48.862Z,5.80
2019-04-11T03:38:38.579Z,5.80
2019-04-11T03:41:07.158Z,5.60
2019-04-11T03:43:33.711Z,5.70
2019-04-11T03:46:14.324Z,5.70
2019-04-11T03:48:47.119Z,5.70
2019-04-11T03:51:05.969Z,5.70
2019-04-11T03:53:37.328Z,5.50
2019-04-11T03:56:07.739Z,5.60
2019-04-11T03:58:46.078Z,5.60
2019-04-11T04:01:23.230Z,5.80
2019-04-11T04:03:54.042Z,5.60
2019-04-11T04:06:25.582Z,5.80
2019-04-11T04:08:55.729Z,5.60
2019-04-11T04:11:29.526Z,5.60
2019-04-11T04:14:19.832Z,5.50
2019-04-11T04:17:10.082Z,5.40
2019-04-11T04:19:54.109Z,5.30
2019-04-11T04:30:24.543Z,5.40
2019-04-11T04:32:54.752Z,5.30
2019-04-11T04:35:26.036Z,5.30
2019-04-11T04:37:57.180Z,5.40
2019-04-11T04:40:47.851Z,5.50
2019-04-11T04:43:05.098Z,5.40
2019-04-11T04:45:54.702Z,5.30
2019-04-11T04:48:11.672Z,5.20
2019-04-11T04:50:39.459Z,5.10
2019-04-11T04:53:15.878Z,5.10
2019-04-11T04:55:47.673Z,5.10
2019-04-11T04:58:20.173Z,5.20
2019-04-11T05:00:58.259Z,5.00
2019-04-11T05:03:29.655Z,4.90
2019-04-11T05:06:05.874Z,4.90
2019-04-11T05:08:35.717Z,4.80
2019-04-11T05:11:07.695Z,4.80
2019-04-11T05:13:58.741Z,4.90
2019-04-11T05:16:38.366Z,5.00
2019-04-11T05:19:15.342Z,5.10
2019-04-11T05:21:47.884Z,4.80
2019-04-11T05:24:18.784Z,4.90
2019-04-11T05:26:48.728Z,5.10
2019-04-11T05:29:19.613Z,4.80
2019-04-11T05:31:49.821Z,4.90
2019-04-11T05:34:20.392Z,5.00
2019-04-11T05:36:50.430Z,5.00
2019-04-11T05:39:23.437Z,5.00
2019-04-11T05:41:54.474Z,5.20
2019-04-11T05:44:25.147Z,5.20
2019-04-11T05:46:59.201Z,5.10
2019-04-11T05:49:41.903Z,5.00
2019-04-11T05:52:12.285Z,5.10
2019-04-11T05:54:56.025Z,5.20
2019-04-11T05:57:32.300Z,5.40
2019-04-11T05:59:57.865Z,5.40
2019-04-11T06:02:41.584Z,5.30
2019-04-11T06:05:44.377Z,5.40
2019-04-11T06:08:22.459Z,5.50
2019-04-11T06:22:01.709Z,5.60
2019-04-11T06:24:48.458Z,5.70
2019-04-11T06:27:22.157Z,5.70
2019-04-11T06:30:15.928Z,5.80
2019-04-11T06:33:04.625Z,6.00
2019-04-11T06:41:46.489Z,5.90
2019-04-11T06:44:44.069Z,6.00
2019-04-11T06:47:43.141Z,6.20
2019-04-11T06:50:33.766Z,6.10
2019-04-11T06:58:45.801Z,6.30
2019-04-11T07:01:23.963Z,6.50
2019-04-11T07:06:38.340Z,6.50
2019-04-11T07:09:37.169Z,6.50
2019-04-11T07:12:15.603Z,6.60
2019-04-11T07:14:50.078Z,6.70
2019-04-11T07:17:38.618Z,6.60
2019-04-11T07:20:35.734Z,6.60
2019-04-11T07:26:33.147Z,6.70
2019-04-11T07:29:22.071Z,6.80
2019-04-11T07:32:20.219Z,6.80
2019-04-11T07:35:08.639Z,6.80
2019-04-11T07:37:40.627Z,6.90
2019-04-11T07:40:33.329Z,7.00
2019-04-11T07:43:15.739Z,6.90
2019-04-11T07:46:18.609Z,6.90
2019-04-11T07:48:47.933Z,7.00
2019-04-11T07:54:12.172Z,7.10
2019-04-11T07:56:41.855Z,7.30
2019-04-11T07:59:19.693Z,7.10
2019-04-11T08:02:08.687Z,7.10
2019-04-11T08:05:06.713Z,7.40
2019-04-11T08:07:55.098Z,7.40
2019-04-11T08:10:31.157Z,7.40
2019-04-11T08:13:03.806Z,7.50
2019-04-11T08:15:53.653Z,7.70
2019-04-11T08:18:30.921Z,7.70
2019-04-11T08:21:19.945Z,7.50
2019-04-11T08:23:54.169Z,7.70
2019-04-11T08:26:52.592Z,7.80
2019-04-11T08:29:22.483Z,7.90
2019-04-11T08:32:27.427Z,8.00
2019-04-11T08:35:19.856Z,8.10
2019-04-11T08:43:23.716Z,8.00
2019-04-11T08:45:58.252Z,8.30
2019-04-11T08:48:28.852Z,8.10
2019-04-11T08:51:03.037Z,8.10
2019-04-11T08:54:07.114Z,8.00
2019-04-11T08:56:37.466Z,7.80
2019-04-11T09:02:27.339Z,7.80
2019-04-11T09:05:22.774Z,8.10
2019-04-11T09:08:26.901Z,8.10
2019-04-11T09:14:22.359Z,8.30
2019-04-11T09:16:56.249Z,8.40
2019-04-11T09:19:43.615Z,8.50
2019-04-11T09:22:31.225Z,8.50
2019-04-11T09:25:32.611Z,8.70
2019-04-11T09:28:21.828Z,8.70
2019-04-11T09:31:15.165Z,8.80
2019-04-11T09:34:03.892Z,8.80
2019-04-11T09:36:53.314Z,8.40
2019-04-11T09:39:57.226Z,8.40
2019-04-11T09:42:51.808Z,8.70
2019-04-11T09:45:43.910Z,8.90
2019-04-11T09:48:33.728Z,8.80
2019-04-11T09:51:11.450Z,9.00
2019-04-11T10:02:25.992Z,9.10
2019-04-11T10:04:59.536Z,9.20
2019-04-11T10:07:48.164Z,9.30
2019-04-11T10:10:41.819Z,9.40
2019-04-11T10:13:28.906Z,9.20
2019-04-11T10:16:18.206Z,9.20
2019-04-11T10:19:44.346Z,9.30
2019-04-11T10:26:04.451Z,9.10
2019-04-11T10:29:06.482Z,9.30
2019-04-11T10:32:03.239Z,9.30
2019-04-11T10:34:52.212Z,9.40
2019-04-11T10:40:59.028Z,9.70
2019-04-11T10:43:34.119Z,9.60
2019-04-11T10:46:33.494Z,9.60
2019-04-11T10:53:06.989Z,9.60
2019-04-11T10:59:02.364Z,9.50
2019-04-11T11:02:15.394Z,9.50
2019-04-11T11:07:40.353Z,9.80
2019-04-11T11:10:17.868Z,9.80
2019-04-11T11:13:26.187Z,9.90
2019-04-11T11:15:58.046Z,9.90
2019-04-11T11:19:15.334Z,10.10
2019-04-11T11:21:24.997Z,10.10
2019-04-11T11:24:21.766Z,10.10
2019-04-11T11:26:55.591Z,10.20
2019-04-11T11:29:40.676Z,10.20
2019-04-11T11:32:36.250Z,10.10
2019-04-11T11:35:28.370Z,10.20
2019-04-11T11:38:06.399Z,10.30
2019-04-11T11:41:09.733Z,10.40
2019-04-11T11:43:43.348Z,10.30
2019-04-11T11:46:32.116Z,10.20
2019-04-11T11:49:05.954Z,10.50
2019-04-11T11:52:09.552Z,10.50
2019-04-11T11:54:58.256Z,10.40
2019-04-11T11:58:14.332Z,10.40
2019-04-11T12:00:46.401Z,10.60
2019-04-11T12:03:33.067Z,10.50
2019-04-11T12:06:07.261Z,10.60
2019-04-11T12:11:42.222Z,10.80
2019-04-11T12:14:30.909Z,10.80
2019-04-11T12:17:08.469Z,10.80
2019-04-11T12:22:32.731Z,10.70
2019-04-11T12:25:21.060Z,10.80
2019-04-11T12:28:04.126Z,11.00
2019-04-11T12:30:44.633Z,11.20
2019-04-11T12:33:33.136Z,11.20
2019-04-11T12:39:24.352Z,11.10
2019-04-11T12:42:00.447Z,11.00
2019-04-11T12:44:46.986Z,11.10
2019-04-11T12:47:20.242Z,11.10
2019-04-11T12:50:18.691Z,11.10
2019-04-11T12:53:10.005Z,11.00
2019-04-11T12:55:58.518Z,11.00
2019-04-11T13:01:30.794Z,11.10
2019-04-11T13:04:18.411Z,11.10
2019-04-11T13:07:05.712Z,11.30
2019-04-11T13:12:40.052Z,11.10
2019-04-11T13:15:19.028Z,11.00
2019-04-11T13:17:56.466Z,10.90
2019-04-11T13:20:47.716Z,11.10
2019-04-11T13:23:30.835Z,11.10
2019-04-11T13:26:19.082Z,11.30
2019-04-11T13:28:53.940Z,11.20
2019-04-11T13:31:45.477Z,11.10
2019-04-11T13:34:14.770Z,11.00
2019-04-11T13:37:02.329Z,11.10
2019-04-11T13:39:32.710Z,11.10
2019-04-11T13:42:39.146Z,11.20
2019-04-11T13:45:13.891Z,11.30
2019-04-11T13:48:02.591Z,11.30
2019-04-11T13:50:36.719Z,11.40
2019-04-11T13:53:24.047Z,11.50
2019-04-11T13:55:53.649Z,11.40
2019-04-11T13:58:48.720Z,11.30
2019-04-11T14:01:21.939Z,11.30
2019-04-11T14:04:23.078Z,11.20
2019-04-11T14:06:55.294Z,11.40
2019-04-11T14:09:32.209Z,11.40
2019-04-11T14:12:08.199Z,11.40
2019-04-11T14:15:10.542Z,11.50
2019-04-11T14:18:11.357Z,11.60
2019-04-11T14:20:43.765Z,11.40
2019-04-11T14:23:32.221Z,11.50
2019-04-11T14:26:26.190Z,11.50
2019-04-11T14:29:18.429Z,11.50
2019-04-11T14:31:54.755Z,11.60
2019-04-11T14:34:42.385Z,11.70
2019-04-11T14:37:37.721Z,11.50
2019-04-11T14:40:06.448Z,11.40
2019-04-11T14:48:43.427Z,11.50
2019-04-11T14:51:46.279Z,11.60
2019-04-11T14:54:19.925Z,11.60
2019-04-11T14:57:03.193Z,11.40
2019-04-11T14:59:58.804Z,11.30
2019-04-11T15:02:56.791Z,11.20
2019-04-11T15:05:48.283Z,11.40
2019-04-11T15:08:27.913Z,11.40
2019-04-11T15:16:49.859Z,11.50
2019-04-11T15:19:19.762Z,11.50
2019-04-11T15:22:10.862Z,11.50
2019-04-11T15:24:44.317Z,11.50
2019-04-11T15:27:38.207Z,11.40
2019-04-11T15:30:06.877Z,11.40
2019-04-11T15:32:51.087Z,11.40
2019-04-11T15:35:21.124Z,11.50
2019-04-11T15:37:58.423Z,11.50
2019-04-11T15:40:36.483Z,11.60
2019-04-11T15:43:34.172Z,11.50
2019-04-11T15:46:07.010Z,11.50
2019-04-11T15:52:08.200Z,11.30
2019-04-11T15:54:56.933Z,11.40
2019-04-11T15:57:44.204Z,11.30
2019-04-11T16:00:39.033Z,11.40
2019-04-11T16:03:24.618Z,11.50
2019-04-11T16:06:38.824Z,11.50
2019-04-11T16:09:13.198Z,11.50
2019-04-11T16:15:00.661Z,11.50
2019-04-11T16:18:32.522Z,11.60
2019-04-11T16:22:01.234Z,11.60
2019-04-11T16:24:55.991Z,11.90
2019-04-11T16:31:03.132Z,12.20
2019-04-11T16:52:15.539Z,14.60
2019-04-11T16:54:46.745Z,14.70
2019-04-11T16:57:22.853Z,14.70
2019-04-11T16:59:59.871Z,15.20
2019-04-11T17:02:56.542Z,15.60
2019-04-11T17:12:50.759Z,15.30
2019-04-11T17:15:47.181Z,15.50
2019-04-11T17:19:37.207Z,14.60
2019-04-11T17:22:24.238Z,13.60
2019-04-11T17:34:51.680Z,10.90
2019-04-11T17:38:04.074Z,10.60
2019-04-11T17:40:56.160Z,10.40
2019-04-11T17:44:39.490Z,10.30
2019-04-11T17:47:41.840Z,10.20
2019-04-11T17:53:42.996Z,9.80
2019-04-11T17:57:30.219Z,9.70
2019-04-11T18:00:08.928Z,9.60
2019-04-11T18:02:41.492Z,9.50
2019-04-11T18:05:11.939Z,9.40
2019-04-11T18:21:14.843Z,8.90
2019-04-11T18:23:50.118Z,8.80
2019-04-11T18:26:22.909Z,8.80
2019-04-11T18:28:56.410Z,8.70
2019-04-11T18:34:40.312Z,8.60
2019-04-11T18:43:53.988Z,8.40
2019-04-11T18:46:39.744Z,8.30
2019-04-11T18:49:09.988Z,8.30
2019-04-11T18:51:41.069Z,8.10
2019-04-11T18:54:11.030Z,8.00
2019-04-11T18:56:40.869Z,8.00
2019-04-11T18:59:11.139Z,8.00
2019-04-11T19:01:41.534Z,8.00
2019-04-11T19:04:32.571Z,8.00
2019-04-11T19:07:27.993Z,7.80
2019-04-11T19:13:00.896Z,7.80
2019-04-11T19:15:50.368Z,7.80
2019-04-11T19:18:22.159Z,7.70
2019-04-11T19:23:45.666Z,7.70
2019-04-11T19:26:16.621Z,7.70
2019-04-11T19:28:49.933Z,7.70
2019-04-11T19:31:20.433Z,7.60
2019-04-11T19:33:54.603Z,7.60
2019-04-11T19:36:24.762Z,7.40
2019-04-11T19:38:55.513Z,7.40
2019-04-11T19:41:32.803Z,7.40
2019-04-11T19:44:04.847Z,7.40
2019-04-11T19:46:34.662Z,7.40
2019-04-11T19:49:13.734Z,7.30
2019-04-11T19:51:44.347Z,7.30
2019-04-11T19:54:20.116Z,7.30
2019-04-11T19:57:11.764Z,7.30
2019-04-11T20:00:05.966Z,7.20
2019-04-11T20:02:59.302Z,7.30
2019-04-11T20:05:35.835Z,7.20
2019-04-11T20:10:55.649Z,7.10
2019-04-11T20:13:31.982Z,7.10
2019-04-11T20:15:58.502Z,7.00
2019-04-11T20:18:29.279Z,7.10
2019-04-11T20:21:07.564Z,7.10
2019-04-11T20:23:41.758Z,7.20
2019-04-11T20:26:27.938Z,7.10
2019-04-11T20:31:42.451Z,7.10
2019-04-11T20:34:26.602Z,7.10
2019-04-11T20:36:47.513Z,6.90
2019-04-11T20:39:21.396Z,7.00
2019-04-11T20:41:53.503Z,7.00
2019-04-11T20:44:27.197Z,7.00
2019-04-11T20:47:03.418Z,6.90
2019-04-11T20:49:37.181Z,6.80
2019-04-11T20:52:08.761Z,6.80
2019-04-11T20:54:45.298Z,6.90
2019-04-11T20:57:25.478Z,6.90
2019-04-11T20:59:49.980Z,6.80
2019-04-11T21:02:29.096Z,6.80
2019-04-11T21:05:13.918Z,6.70
2019-04-11T21:07:43.964Z,6.80
2019-04-11T21:10:14.810Z,6.80
2019-04-11T21:12:47.951Z,6.80
2019-04-11T21:15:20.979Z,6.80
2019-04-11T21:17:53.615Z,6.80
2019-04-11T21:20:23.863Z,6.60
2019-04-11T21:23:00.085Z,6.70
2019-04-11T21:25:31.031Z,6.70
2019-04-11T21:28:01.624Z,6.70
2019-04-11T21:30:32.594Z,6.70
2019-04-11T21:33:04.200Z,6.60
2019-04-11T21:35:36.268Z,6.40
2019-04-11T21:38:06.490Z,6.40
2019-04-11T21:40:36.734Z,6.40
2019-04-11T21:43:06.823Z,6.50
2019-04-11T21:45:36.929Z,6.50
2019-04-11T21:48:07.056Z,6.50
2019-04-11T21:50:40.297Z,6.30
2019-04-11T21:53:08.923Z,6.40
2019-04-11T21:55:39.258Z,6.40
2019-04-11T21:58:11.714Z,6.30
2019-04-11T22:00:45.552Z,6.40
2019-04-11T22:03:15.494Z,6.30
2019-04-11T22:05:45.645Z,6.30
2019-04-11T22:08:15.585Z,6.40
2019-04-11T22:10:45.921Z,6.20
2019-04-11T22:13:16.396Z,6.10
2019-04-11T22:15:46.445Z,6.20
2019-04-11T22:18:16.989Z,6.10
2019-04-11T22:20:47.690Z,6.20
2019-04-11T22:23:18.115Z,6.20
2019-04-11T22:25:47.706Z,6.10
2019-04-11T22:28:18.366Z,6.10
2019-04-11T22:30:49.014Z,6.10
2019-04-11T22:33:27.576Z,6.10
2019-04-11T22:36:02.318Z,6.10
2019-04-11T22:38:32.595Z,6.10
2019-04-11T22:41:03.058Z,6.10
2019-04-11T22:43:33.337Z,6.10
2019-04-11T22:46:07.772Z,6.10
2019-04-11T22:48:36.831Z,5.90
2019-04-11T22:51:08.878Z,6.00
2019-04-11T22:53:43.183Z,5.90
2019-04-11T22:56:14.028Z,5.90
2019-04-11T22:58:44.541Z,5.70
2019-04-11T23:01:16.551Z,5.80
2019-04-11T23:04:05.118Z,5.80
2019-04-11T23:09:14.062Z,5.80
2019-04-11T23:11:45.259Z,5.70
2019-04-11T23:14:15.946Z,5.70
2019-04-11T23:16:46.866Z,5.70
2019-04-11T23:19:17.245Z,5.60
2019-04-11T23:21:47.185Z,5.70
2019-04-11T23:24:17.935Z,5.70
2019-04-11T23:26:48.796Z,5.70
2019-04-11T23:29:18.375Z,5.60
2019-04-11T23:31:51.889Z,5.50
2019-04-11T23:34:22.127Z,5.50
2019-04-11T23:36:52.478Z,5.50
2019-04-11T23:39:23.020Z,5.60
2019-04-11T23:41:53.341Z,5.40
2019-04-11T23:46:59.856Z,5.30
2019-04-11T23:49:29.812Z,5.30
2019-04-11T23:51:59.717Z,5.40
2019-04-11T23:54:30.246Z,5.20
2019-04-11T23:57:00.962Z,5.30
2019-04-11T23:59:32.665Z,5.30
